CST,Max TemperatureF,Mean TemperatureF,Min TemperatureF,Max Dew PointF,MeanDew PointF,Min DewpointF,Max Humidity, Mean Humidity, Min Humidity, Max Sea Level PressureIn, Mean Sea Level PressureIn, Min Sea Level PressureIn, Max VisibilityMiles, Mean VisibilityMiles, Min VisibilityMiles, Max Wind SpeedMPH, Mean Wind SpeedMPH, Max Gust SpeedMPH,PrecipitationIn, CloudCover, Events, WindDirDegrees
2012-1-1,33,25,17,32,22,10,93,82,71,30.07,29.81,29.57,10,3,1,30,15,39,0.00,8,Snow,303
2012-1-2,17,11,3,10,7,-5,79,70,61,30.48,30.25,30.03,10,6,1,24,19,34,0.00,7,Snow,320
2012-1-3,19,10,0,9,2,-6,79,66,54,30.45,30.22,29.92,10,10,10,13,5,,0.00,0,,192
2012-1-4,28,22,17,18,15,8,88,74,64,30.05,29.99,29.90,10,10,10,17,8,,0.00,0,,265
2012-1-5,44,30,17,31,25,14,92,74,58,30.00,29.76,29.57,10,10,7,12,4,,0.00,0,,238
2012-1-6,44,40,35,31,29,25,70,65,60,29.75,29.68,29.57,10,10,10,14,10,22,0.00,2,,279
2012-1-7,35,30,21,27,21,19,89,68,59,30.25,30.04,29.77,10,10,10,21,12,28,0.00,5,,297
2012-1-8,37,29,21,26,21,18,88,77,57,30.31,30.25,30.15,10,10,10,8,6,,0.00,0,,235
2012-1-9,44,36,27,27,26,23,85,70,51,30.11,29.94,29.83,10,10,10,16,10,25,0.00,1,,250
2012-1-10,50,36,23,31,27,21,92,71,46,29.99,29.85,29.68,10,10,8,13,5,,0.00,0,,219
2012-1-11,43,34,24,33,28,19,87,78,62,29.67,29.62,29.58,10,9,2,18,7,25,0.00,3,Snow,285
2012-1-12,23,18,14,19,12,9,86,79,73,29.70,29.60,29.52,5,2,0,22,18,30,0.02,8,Snow,333
2012-1-13,18,15,12,10,8,7,79,75,65,30.02,29.87,29.63,10,7,2,18,14,21,0.00,8,Snow,309
2012-1-14,16,14,12,7,6,3,80,71,58,30.19,30.11,30.03,10,10,6,7,3,,0.00,8,Snow,194
2012-1-15,32,24,15,22,15,6,86,77,64,30.22,30.10,29.84,10,8,5,16,8,25,0.00,6,,158
2012-1-16,33,27,21,25,22,19,93,81,72,29.87,29.78,29.72,10,6,2,13,8,21,0.00,3,,49
2012-1-17,26,14,1,19,10,-6,86,74,64,30.26,29.98,29.81,10,6,0,22,14,28,0.00,6,Fog-Snow,328
2012-1-18,19,6,-7,16,2,-11,86,71,50,30.26,29.91,29.60,10,8,1,23,8,31,0.00,4,Snow,217
2012-1-19,14,2,-9,7,-14,-20,73,61,44,30.23,29.99,29.65,10,9,2,28,18,34,0.00,3,Snow,297
2012-1-20,5,-3,-11,-2,-8,-20,85,73,60,30.27,30.20,30.11,10,6,0,5,1,,0.00,5,Snow,234
2012-1-21,16,4,-9,4,-4,-13,91,65,43,30.30,30.20,29.97,10,10,6,14,6,20,0.00,2,Snow,150
2012-1-22,28,22,15,27,17,7,93,84,68,30.00,29.74,29.49,10,5,1,16,12,24,0.00,8,,128
2012-1-23,30,26,21,27,23,17,93,86,74,29.83,29.44,29.31,10,3,0,20,11,29,0.07,8,Fog-Snow,315
2012-1-24,24,18,12,16,14,10,88,79,69,30.33,30.18,29.86,10,9,6,17,11,23,0.00,5,,290
2012-1-25,30,23,16,22,18,12,86,79,69,30.39,30.22,29.99,10,6,2,13,4,,0.00,8,Snow,168
2012-1-26,34,29,24,29,25,19,96,85,66,29.96,29.76,29.61,10,5,0,18,9,24,0.00,7,Fog,207
2012-1-27,36,26,16,29,22,12,93,77,39,29.86,29.77,29.67,10,7,2,24,11,29,0.00,5,Rain-Snow,258
2012-1-28,26,20,10,21,13,6,81,72,59,29.99,29.88,29.75,10,10,5,20,15,29,0.00,5,Snow,280
2012-1-29,18,13,8,9,5,1,84,72,54,30.19,30.08,29.96,10,10,9,14,7,,0.00,2,,282
2012-1-30,33,22,10,21,14,3,81,72,61,30.12,29.87,29.74,10,8,2,14,7,,0.00,4,Snow,111
2012-1-31,43,32,21,32,27,18,89,74,60,29.90,29.71,29.64,10,9,6,21,7,28,0.00,2,,262